Time;durP1;ratioP1;P1;durP2;ratioP2;P2;SDS_P1;SDS_P2;PMS_P1;PMS_P2;Temp;Humidity;BMP_temperature;BMP_pressure;BME280_temperature;BME280_humidity;BME280_pressure;Samples;Min_cycle;Max_cycle;Signal;HPM_P1;HPM_P2
2024/04/09 00:00:11;;;;;;;5.68;1.33;;;;;;;6.22;100.00;99325.16;5045696;28;20420;-55
2024/04/09 00:02:40;;;;;;;3.45;2.30;;;;;;;6.21;100.00;99334.53;5046082;28;20095;-58
2024/04/09 00:05:08;;;;;;;6.85;2.20;;;;;;;6.20;100.00;99330.97;5046198;28;20086;-60
2024/04/09 00:07:38;;;;;;;4.38;1.60;;;;;;;6.22;100.00;99336.13;5045777;28;20012;-58
2024/04/09 00:10:08;;;;;;;3.97;1.20;;;;;;;6.21;100.00;99343.59;5062418;28;20044;-58
2024/04/09 00:12:36;;;;;;;4.68;1.30;;;;;;;6.21;100.00;99345.53;5077156;28;20462;-58
2024/04/09 00:15:08;;;;;;;2.85;1.17;;;;;;;6.19;100.00;99343.13;5096404;27;20027;-58
2024/04/09 00:17:54;;;;;;;2.97;1.38;;;;;;;6.20;100.00;99354.91;5045822;28;20463;-58
2024/04/09 00:20:25;;;;;;;4.88;1.45;;;;;;;6.18;100.00;99357.22;5045835;28;20055;-61
2024/04/09 00:22:59;;;;;;;3.13;1.23;;;;;;;6.17;100.00;99372.91;5045746;28;20092;-58
2024/04/09 00:25:28;;;;;;;6.32;1.35;;;;;;;6.16;100.00;99359.50;5046077;28;20016;-59
2024/04/09 00:27:55;;;;;;;5.65;1.38;;;;;;;6.17;100.00;99361.91;5096685;28;20043;-59
2024/04/09 00:30:23;;;;;;;4.38;1.48;;;;;;;6.18;100.00;99369.00;5045811;28;20016;-58
2024/04/09 00:32:51;;;;;;;5.65;1.50;;;;;;;6.19;100.00;99376.13;5055665;28;20400;-59
2024/04/09 00:35:21;;;;;;;2.90;0.90;;;;;;;6.19;100.00;99376.13;5076722;28;20022;-60
2024/04/09 00:37:51;;;;;;;2.42;1.30;;;;;;;6.21;100.00;99384.00;5070978;28;20034;-59
2024/04/09 00:40:20;;;;;;;1.08;0.70;;;;;;;6.23;100.00;99385.25;5045700;28;20018;-56
2024/04/09 00:42:49;;;;;;;7.30;1.30;;;;;;;6.23;100.00;99390.75;5046019;28;20088;-58
2024/04/09 00:45:19;;;;;;;5.40;1.23;;;;;;;6.23;100.00;99393.50;5045993;28;20015;-58
2024/04/09 00:47:46;;;;;;;3.90;1.63;;;;;;;6.24;100.00;99388.78;5045677;28;20022;-59
2024/04/09 00:50:17;;;;;;;5.05;1.50;;;;;;;6.24;100.00;99388.78;5045162;28;20029;-58
2024/04/09 00:52:46;;;;;;;3.65;1.50;;;;;;;6.24;100.00;99380.56;5045736;28;20027;-58
2024/04/09 00:55:17;;;;;;;10.10;1.33;;;;;;;6.24;100.00;99381.34;5046682;28;20026;-59
2024/04/09 00:57:48;;;;;;;5.90;1.55;;;;;;;6.26;100.00;99387.28;5044751;28;20026;-58
2024/04/09 01:00:16;;;;;;;4.60;2.10;;;;;;;6.27;100.00;99388.91;5045544;28;20034;-60
2024/04/09 01:02:43;;;;;;;7.72;1.60;;;;;;;6.26;100.00;99383.75;5045785;28;20051;-61
2024/04/09 01:05:11;;;;;;;6.20;1.30;;;;;;;6.28;100.00;99385.00;5045339;28;20022;-61
2024/04/09 01:07:38;;;;;;;6.10;1.30;;;;;;;6.27;100.00;99386.16;5044825;28;20030;-61
2024/04/09 01:10:06;;;;;;;5.57;2.67;;;;;;;6.29;100.00;99383.06;5062201;28;20824;-57
2024/04/09 01:12:35;;;;;;;6.47;1.83;;;;;;;6.29;100.00;99381.09;5046215;28;20011;-57
2024/04/09 01:15:02;;;;;;;9.77;1.95;;;;;;;6.31;100.00;99389.78;5045344;28;20452;-56
2024/04/09 01:17:32;;;;;;;6.43;1.90;;;;;;;6.31;100.00;99389.78;5043274;28;20084;-58
2024/04/09 01:19:59;;;;;;;8.20;1.88;;;;;;;6.30;100.00;99388.19;5045144;28;20729;-59
2024/04/09 01:22:31;;;;;;;7.43;1.90;;;;;;;6.32;100.00;99396.09;5045007;28;20011;-58
2024/04/09 01:24:59;;;;;;;6.68;2.88;;;;;;;6.32;100.00;99396.09;5044251;28;20023;-60
2024/04/09 01:27:26;;;;;;;5.05;2.63;;;;;;;6.33;100.00;99394.97;5071155;28;20047;-58
2024/04/09 01:29:54;;;;;;;7.57;2.05;;;;;;;6.32;100.00;99402.41;5078430;28;20050;-60
2024/04/09 01:32:25;;;;;;;9.80;3.38;;;;;;;6.32;100.00;99402.41;5044277;28;20011;-57
2024/04/09 01:34:52;;;;;;;9.82;1.88;;;;;;;6.32;100.00;99413.41;5044919;28;20015;-58
2024/04/09 01:37:20;;;;;;;12.73;2.30;;;;;;;6.33;100.00;99416.94;5044924;28;20091;-58
2024/04/09 01:39:48;;;;;;;14.00;2.88;;;;;;;6.33;100.00;99420.47;5045111;28;20811;-58
2024/04/09 01:42:16;;;;;;;6.10;2.13;;;;;;;6.37;100.00;99418.66;5044087;28;20026;-57
2024/04/09 01:44:44;;;;;;;8.57;1.80;;;;;;;6.34;100.00;99407.53;5045076;28;20015;-61
2024/04/09 01:47:11;;;;;;;7.45;2.00;;;;;;;6.32;100.00;99407.91;5043860;28;20026;-55
2024/04/09 01:49:40;;;;;;;11.57;2.53;;;;;;;6.34;100.00;99419.34;5043147;28;20027;-55
2024/04/09 01:52:11;;;;;;;7.40;2.20;;;;;;;6.33;100.00;99420.47;5044483;28;20832;-57
2024/04/09 01:54:46;;;;;;;6.82;1.70;;;;;;;6.32;100.00;99418.91;5044564;28;20007;-56
2024/04/09 01:57:13;;;;;;;5.70;2.97;;;;;;;6.31;100.00;99425.53;5043686;28;20011;-58
2024/04/09 01:59:42;;;;;;;7.43;2.33;;;;;;;6.30;100.00;99421.16;5044065;28;20015;-58
2024/04/09 02:02:13;;;;;;;5.85;1.95;;;;;;;6.32;100.00;99418.91;5044717;28;20007;-59
2024/04/09 02:04:40;;;;;;;10.02;1.83;;;;;;;6.34;100.00;99424.84;5043991;28;20011;-62
2024/04/09 02:07:08;;;;;;;14.18;1.98;;;;;;;6.33;100.00;99417.72;5044991;28;20008;-62
2024/04/09 02:09:35;;;;;;;7.43;2.13;;;;;;;6.33;100.00;99425.97;5053361;28;20423;-59
2024/04/09 02:12:03;;;;;;;7.38;1.77;;;;;;;6.33;100.00;99431.47;5075848;28;20017;-61
2024/04/09 02:14:31;;;;;;;3.53;1.50;;;;;;;6.34;100.00;99422.09;5059604;28;20482;-59
2024/04/09 02:16:59;;;;;;;3.30;1.25;;;;;;;6.35;100.00;99426.44;5044602;28;20022;-60
2024/04/09 02:19:28;;;;;;;4.15;1.80;;;;;;;6.34;100.00;99427.59;5043576;28;20021;-58
2024/04/09 02:21:56;;;;;;;6.80;1.50;;;;;;;6.37;100.00;99426.09;5043580;28;20056;-59
2024/04/09 02:24:24;;;;;;;6.57;1.70;;;;;;;6.36;100.00;99430.78;5044181;28;20022;-58
2024/04/09 02:26:52;;;;;;;2.40;1.45;;;;;;;6.37;100.00;99429.63;5044015;28;20585;-61
2024/04/09 02:29:20;;;;;;;10.55;4.20;;;;;;;6.38;100.00;99439.47;5044542;28;20347;-57
2024/04/09 02:31:47;;;;;;;4.93;1.08;;;;;;;6.39;100.00;99437.53;5046407;28;20008;-58
2024/04/09 02:34:15;;;;;;;8.70;1.73;;;;;;;6.38;100.00;99447.72;5051019;28;20015;-59
2024/04/09 02:36:43;;;;;;;12.18;3.53;;;;;;;6.37;100.00;99454.38;5046820;28;20011;-57
2024/04/09 02:39:10;;;;;;;3.38;1.17;;;;;;;6.37;100.00;99454.38;5047175;28;20016;-58
2024/04/09 02:41:39;;;;;;;4.15;1.02;;;;;;;6.38;100.00;99461.47;5045452;28;20012;-59
2024/04/09 02:44:07;;;;;;;3.15;0.80;;;;;;;6.41;100.00;99463.50;5025241;28;20047;-59
2024/04/09 02:46:35;;;;;;;2.38;0.88;;;;;;;6.41;100.00;99471.75;5062814;28;20011;-58
2024/04/09 02:49:03;;;;;;;4.05;0.80;;;;;;;6.40;100.00;99470.19;5046169;28;20015;-58
2024/04/09 02:51:30;;;;;;;6.13;0.70;;;;;;;6.40;100.00;99475.69;5047000;28;20022;-57
2024/04/09 02:53:58;;;;;;;1.88;0.82;;;;;;;6.40;100.00;99486.66;5046374;28;20089;-59
2024/04/09 02:56:26;;;;;;;4.13;0.98;;;;;;;6.40;100.00;99496.84;5046665;28;20472;-58
2024/04/09 02:58:53;;;;;;;3.13;0.90;;;;;;;6.39;100.00;99501.56;5046728;28;20012;-60
2024/04/09 03:01:21;;;;;;;0.85;0.70;;;;;;;6.38;100.00;99501.91;5224451;22;20014;-59
2024/04/09 03:03:49;;;;;;;3.13;1.50;;;;;;;6.39;100.00;99506.25;5236410;27;20015;-59
2024/04/09 03:06:17;;;;;;;3.47;1.00;;;;;;;6.38;100.00;99505.44;5217418;27;20475;-61
2024/04/09 03:08:45;;;;;;;2.38;0.80;;;;;;;6.39;100.00;99506.25;5206866;27;20007;-61
2024/04/09 03:11:19;;;;;;;3.28;0.60;;;;;;;6.37;100.00;99512.09;5219837;27;20011;-58
2024/04/09 03:13:51;;;;;;;1.10;0.68;;;;;;;6.38;100.00;99521.16;5214886;27;20008;-58
2024/04/09 03:16:20;;;;;;;2.28;0.30;;;;;;;6.37;100.00;99522.28;5206110;27;20012;-58
2024/04/09 03:18:52;;;;;;;4.32;0.57;;;;;;;6.35;100.00;99530.09;5217437;27;21249;-59
2024/04/09 03:21:21;;;;;;;3.08;0.60;;;;;;;6.35;100.00;99521.84;5223757;27;20004;-62
2024/04/09 03:23:48;;;;;;;1.27;0.40;;;;;;;6.34;100.00;99525.72;5218104;27;20011;-59
2024/04/09 03:26:15;;;;;;;0.85;0.70;;;;;;;6.34;100.00;99525.72;5228084;27;20008;-60
2024/04/09 03:28:44;;;;;;;1.30;0.40;;;;;;;6.33;100.00;99529.66;5220356;27;20012;-60
2024/04/09 03:31:11;;;;;;;4.05;0.60;;;;;;;6.32;100.00;99533.53;5217391;27;20014;-60
2024/04/09 03:33:39;;;;;;;1.25;0.38;;;;;;;6.32;100.00;99539.03;5222053;27;20351;-58
2024/04/09 03:36:08;;;;;;;1.85;0.30;;;;;;;6.30;100.00;99542.09;5208128;27;20019;-59
2024/04/09 03:38:37;;;;;;;3.38;0.40;;;;;;;6.32;100.00;99541.78;5226456;27;20417;-60
2024/04/09 03:41:06;;;;;;;3.92;0.57;;;;;;;6.32;100.00;99548.06;5215375;27;20384;-58
2024/04/09 03:43:33;;;;;;;4.00;0.40;;;;;;;6.31;100.00;99554.72;5227125;27;20030;-55
2024/04/09 03:46:08;;;;;;;3.60;1.13;;;;;;;6.31;100.00;99551.97;5205006;27;20145;-54
2024/04/09 03:48:41;;;;;;;1.40;0.43;;;;;;;6.29;100.00;99554.25;5220089;27;20003;-59
2024/04/09 03:51:09;;;;;;;1.52;0.47;;;;;;;6.29;100.00;99557.00;5212949;27;20018;-58
2024/04/09 03:53:38;;;;;;;0.45;0.45;;;;;;;6.28;100.00;99560.91;5232719;27;20621;-58
2024/04/09 03:56:09;;;;;;;1.08;0.25;;;;;;;6.29;100.00;99581.75;5218940;27;20018;-52
2024/04/09 03:58:41;;;;;;;2.63;0.50;;;;;;;6.28;100.00;99560.91;5225962;27;20011;-56
2024/04/09 04:01:10;;;;;;;;;;;;;;;6.27;100.00;99575.78;5226956;27;20007;-55
2024/04/09 04:03:44;;;;;;;3.65;0.80;;;;;;;6.25;100.00;99572.56;5234909;27;20381;-59
2024/04/09 04:06:12;;;;;;;3.20;0.98;;;;;;;6.24;100.00;99581.16;5215326;27;20516;-58
2024/04/09 04:08:41;;;;;;;3.60;1.45;;;;;;;6.24;100.00;99576.47;5215360;27;20018;-57
2024/04/09 04:11:12;;;;;;;4.13;1.17;;;;;;;6.22;100.00;99592.53;5214120;27;20033;-56
2024/04/09 04:13:40;;;;;;;4.78;1.23;;;;;;;6.22;100.00;99591.72;5210300;27;20474;-57
2024/04/09 04:16:12;;;;;;;6.22;1.50;;;;;;;6.19;100.00;99587.72;5229823;27;20377;-58
2024/04/09 04:18:45;;;;;;;2.63;1.63;;;;;;;6.21;100.00;99593.66;5226929;27;20014;-61
2024/04/09 04:21:20;;;;;;;6.63;1.70;;;;;;;6.19;100.00;99601.44;5235746;27;20405;-57
2024/04/09 04:23:56;;;;;;;7.68;2.17;;;;;;;6.19;100.00;99611.63;5228583;27;20021;-58
2024/04/09 04:26:26;;;;;;;3.25;1.33;;;;;;;6.17;100.00;99602.94;5221520;27;20458;-60
2024/04/09 04:28:54;;;;;;;6.60;1.70;;;;;;;6.18;100.00;99610.03;5205391;27;20323;-60
2024/04/09 04:31:25;;;;;;;4.93;1.85;;;;;;;6.17;100.00;99619.44;5212666;27;20770;-58
2024/04/09 04:33:54;;;;;;;4.10;1.25;;;;;;;6.16;100.00;99623.31;5213640;27;20023;-58
2024/04/09 04:36:21;;;;;;;5.80;1.75;;;;;;;6.15;100.00;99625.25;5235870;27;20007;-59
2024/04/09 04:38:49;;;;;;;3.35;2.05;;;;;;;6.16;100.00;99629.63;5215913;27;20056;-59
2024/04/09 04:41:17;;;;;;;5.13;2.05;;;;;;;6.14;100.00;99629.94;5218128;27;20022;-59
2024/04/09 04:43:44;;;;;;;6.55;2.08;;;;;;;6.14;100.00;99627.19;5236851;27;20007;-59
2024/04/09 04:46:12;;;;;;;8.65;2.30;;;;;;;6.16;100.00;99629.63;5238003;27;20109;-58
2024/04/09 04:48:39;;;;;;;6.50;2.03;;;;;;;6.16;100.00;99626.88;5218336;27;20039;-56
2024/04/09 04:51:08;;;;;;;4.28;1.98;;;;;;;6.14;100.00;99631.91;5224760;27;20004;-58
2024/04/09 04:53:36;;;;;;;11.27;1.95;;;;;;;6.13;100.00;99641.28;5209744;27;20022;-59
2024/04/09 04:56:04;;;;;;;10.23;1.73;;;;;;;6.13;100.00;99646.78;5225158;27;20218;-59
2024/04/09 04:58:31;;;;;;;8.25;3.28;;;;;;;6.11;100.00;99654.56;5223775;27;20059;-60
2024/04/09 05:00:59;;;;;;;5.50;1.77;;;;;;;6.10;100.00;99636.47;5208733;27;20327;-60
2024/04/09 05:03:26;;;;;;;6.82;1.80;;;;;;;6.06;100.00;99639.09;5215807;27;20011;-60
2024/04/09 05:05:54;;;;;;;4.22;1.88;;;;;;;6.06;100.00;99654.81;5226350;27;20008;-60
2024/04/09 05:08:22;;;;;;;9.27;3.15;;;;;;;6.04;100.00;99648.81;5206693;27;20022;-59
2024/04/09 05:10:51;;;;;;;8.95;2.90;;;;;;;6.01;100.00;99661.28;5221961;27;20480;-59
2024/04/09 05:13:18;;;;;;;4.43;1.52;;;;;;;5.99;100.00;99654.53;5211857;27;20740;-60
2024/04/09 05:15:46;;;;;;;8.07;1.92;;;;;;;5.96;100.00;99658.78;5226050;27;20019;-60
2024/04/09 05:18:14;;;;;;;12.43;2.13;;;;;;;5.95;100.00;99667.38;5206277;27;20012;-60
2024/04/09 05:20:42;;;;;;;8.57;1.23;;;;;;;5.92;100.00;99668.03;5208767;27;20015;-61
2024/04/09 05:23:09;;;;;;;5.55;1.17;;;;;;;5.87;100.00;99660.84;5206600;27;20011;-61
2024/04/09 05:25:38;;;;;;;8.30;1.63;;;;;;;5.85;100.00;99671.34;5220859;27;20082;-59
2024/04/09 05:28:07;;;;;;;5.65;1.90;;;;;;;5.82;100.00;99673.94;5224207;27;20014;-58
2024/04/09 05:30:35;;;;;;;4.57;1.85;;;;;;;5.79;100.00;99680.91;5209968;27;20008;-59
2024/04/09 05:33:02;;;;;;;6.20;2.22;;;;;;;5.78;100.00;99681.25;5203856;27;20107;-59
2024/04/09 05:35:30;;;;;;;4.68;1.70;;;;;;;5.75;100.00;99684.66;5212646;27;20446;-59
2024/04/09 05:37:58;;;;;;;9.95;1.80;;;;;;;5.71;100.00;99689.25;5212885;27;20015;-59
2024/04/09 05:40:25;;;;;;;13.82;2.35;;;;;;;5.68;100.00;99687.16;5236595;27;20021;-61
2024/04/09 05:42:52;;;;;;;14.52;3.45;;;;;;;5.68;100.00;99703.66;5212736;27;20007;-59
2024/04/09 05:45:21;;;;;;;8.18;1.40;;;;;;;5.65;100.00;99696.06;5196943;27;20061;-61
2024/04/09 05:47:49;;;;;;;3.60;1.50;;;;;;;5.63;100.00;99693.69;5231979;27;20788;-59
2024/04/09 05:50:16;;;;;;;6.60;2.22;;;;;;;5.63;100.00;99703.84;5207088;27;20007;-60
2024/04/09 05:52:44;;;;;;;5.28;2.70;;;;;;;5.60;100.00;99702.59;5231530;27;20003;-60
2024/04/09 05:55:12;;;;;;;4.90;2.00;;;;;;;5.59;100.00;99713.94;5220356;27;20020;-61
2024/04/09 05:57:40;;;;;;;6.18;1.75;;;;;;;5.59;100.00;99708.44;5212806;27;20023;-60
2024/04/09 06:00:21;;;;;;;10.60;2.15;;;;;;;5.58;100.00;99718.59;5220295;27;20020;-59
2024/04/09 06:02:50;;;;;;;7.55;1.95;;;;;;;5.58;100.00;99712.31;5227173;27;20008;-59
2024/04/09 06:05:17;;;;;;;6.80;1.55;;;;;;;5.57;100.00;99727.16;5225808;27;20007;-61
2024/04/09 06:07:45;;;;;;;6.85;1.40;;;;;;;5.56;100.00;99729.09;5210983;27;20031;-59
2024/04/09 06:10:18;;;;;;;12.35;3.03;;;;;;;5.56;100.00;99736.56;5208428;27;20004;-60
2024/04/09 06:12:46;;;;;;;6.70;2.35;;;;;;;5.54;100.00;99740.44;5203412;27;20023;-59
2024/04/09 06:15:16;;;;;;;6.57;1.98;;;;;;;5.53;100.00;99738.81;5176937;27;20020;-62
2024/04/09 06:17:45;;;;;;;9.38;1.48;;;;;;;5.54;100.00;99739.63;5224046;27;20051;-61
2024/04/09 06:20:14;;;;;;;8.80;1.83;;;;;;;5.54;100.00;99756.91;5205349;27;20007;-60
2024/04/09 06:22:41;;;;;;;7.30;1.80;;;;;;;5.55;100.00;99752.22;5214097;27;20023;-60
2024/04/09 06:25:09;;;;;;;8.18;1.80;;;;;;;5.54;100.00;99762.38;5219306;27;20067;-61
2024/04/09 06:27:37;;;;;;;10.18;2.15;;;;;;;5.54;100.00;99769.81;5202480;27;20091;-61
2024/04/09 06:30:07;;;;;;;8.55;2.03;;;;;;;5.53;100.00;99771.75;5203443;27;20019;-61
2024/04/09 06:32:34;;;;;;;14.93;3.28;;;;;;;5.55;100.00;99771.44;5203384;27;20034;-61
2024/04/09 06:35:02;;;;;;;5.20;1.10;;;;;;;5.53;100.00;99777.25;5203454;27;20012;-61
2024/04/09 06:37:30;;;;;;;4.53;1.52;;;;;;;5.53;100.00;99787.44;5201497;27;20019;-61
2024/04/09 06:39:58;;;;;;;6.07;1.73;;;;;;;5.52;100.00;99783.88;5203365;27;20004;-61
2024/04/09 06:42:26;;;;;;;8.88;1.58;;;;;;;5.53;100.00;99799.22;5203324;27;20059;-62
2024/04/09 06:44:54;;;;;;;6.75;1.92;;;;;;;5.53;100.00;99810.19;5203539;27;20406;-61
2024/04/09 06:47:21;;;;;;;8.45;1.63;;;;;;;5.54;100.00;99808.25;5202544;27;20019;-61
2024/04/09 06:49:49;;;;;;;6.65;1.50;;;;;;;5.53;100.00;99812.94;5203640;27;20018;-61
2024/04/09 06:52:18;;;;;;;8.65;1.70;;;;;;;5.52;100.00;99822.31;5203257;27;20022;-61
2024/04/09 06:54:45;;;;;;;5.97;2.92;;;;;;;5.50;100.00;99832.03;5203666;27;20008;-61
2024/04/09 06:57:13;;;;;;;6.00;1.17;;;;;;;5.50;100.00;99821.06;5203834;27;20019;-61
2024/04/09 06:59:40;;;;;;;3.88;1.02;;;;;;;5.48;100.00;99846.06;5202579;27;20022;-61
2024/04/09 07:02:11;;;;;;;6.38;1.40;;;;;;;5.48;100.00;99851.56;5187564;27;20011;-61
2024/04/09 07:04:38;;;;;;;5.88;1.17;;;;;;;5.47;100.00;99839.00;5210910;27;20015;-61
2024/04/09 07:07:06;;;;;;;10.30;1.50;;;;;;;5.47;100.00;99849.97;5212271;27;20018;-62
2024/04/09 07:09:33;;;;;;;5.72;1.40;;;;;;;5.48;100.00;99864.50;5229567;27;20875;-62
2024/04/09 07:12:01;;;;;;;10.10;3.45;;;;;;;5.48;100.00;99856.28;5222185;27;20031;-61
2024/04/09 07:14:30;;;;;;;5.60;2.00;;;;;;;5.47;100.00;99863.69;5225017;27;20011;-62
2024/04/09 07:16:57;;;;;;;3.83;1.45;;;;;;;5.50;100.00;99875.97;5218201;27;20020;-61
2024/04/09 07:19:25;;;;;;;6.97;2.15;;;;;;;5.50;100.00;99876.78;5206322;27;20079;-62
2024/04/09 07:21:52;;;;;;;9.52;1.42;;;;;;;5.51;100.00;99883.84;5215333;27;20004;-62
2024/04/09 07:24:19;;;;;;;9.30;1.55;;;;;;;5.54;100.00;99879.63;5230949;27;20027;-62
2024/04/09 07:26:47;;;;;;;14.82;2.00;;;;;;;5.57;100.00;99881.72;5205999;27;20031;-63
2024/04/09 07:29:15;;;;;;;8.82;2.50;;;;;;;5.61;100.00;99879.94;5200956;27;20008;-62
2024/04/09 07:31:43;;;;;;;9.88;1.63;;;;;;;5.65;100.00;99882.78;5215718;27;20011;-61
2024/04/09 07:34:11;;;;;;;8.02;2.25;;;;;;;5.70;100.00;99891.66;5215847;27;20085;-62
2024/04/09 07:36:38;;;;;;;9.93;1.58;;;;;;;5.76;100.00;99904.03;5223624;27;20077;-62
2024/04/09 07:39:07;;;;;;;9.23;1.30;;;;;;;5.80;100.00;99906.94;5233836;27;20019;-63
2024/04/09 07:41:35;;;;;;;10.07;1.40;;;;;;;5.85;100.00;99909.53;5203670;27;20011;-62
2024/04/09 07:44:03;;;;;;;10.32;1.00;;;;;;;5.92;100.00;99927.06;5220597;27;20020;-62
2024/04/09 07:46:30;;;;;;;7.45;1.67;;;;;;;5.96;100.00;99916.19;5212656;27;20036;-62
2024/04/09 07:49:00;;;;;;;6.18;1.08;;;;;;;5.99;100.00;99932.03;5209851;27;20012;-62
2024/04/09 07:51:28;;;;;;;6.80;1.90;;;;;;;6.05;100.00;99919.69;5223891;27;20022;-62
2024/04/09 07:53:56;;;;;;;7.85;1.63;;;;;;;6.15;100.00;99944.03;5226225;27;20043;-62
2024/04/09 07:56:24;;;;;;;8.40;1.20;;;;;;;6.20;100.00;99940.25;5216314;27;20580;-62
2024/04/09 07:58:52;;;;;;;9.43;1.30;;;;;;;6.26;100.00;99950.72;5213103;27;20011;-62
2024/04/09 08:01:20;;;;;;;8.98;1.30;;;;;;;6.32;100.00;99957.66;5216435;27;20019;-62
2024/04/09 08:03:48;;;;;;;12.25;2.17;;;;;;;6.39;100.00;99957.09;5204149;27;20060;-62
2024/04/09 08:06:16;;;;;;;6.43;1.15;;;;;;;6.46;100.00;99969.16;5223082;27;20459;-62
2024/04/09 08:08:43;;;;;;;6.03;1.10;;;;;;;6.53;100.00;99977.69;5224128;27;20007;-62
2024/04/09 08:11:14;;;;;;;12.30;1.80;;;;;;;6.60;100.00;99971.63;5219851;27;20083;-63
2024/04/09 08:13:42;;;;;;;8.25;1.20;;;;;;;6.68;100.00;99990.00;5205248;27;20011;-62
2024/04/09 08:16:10;;;;;;;7.47;1.30;;;;;;;6.75;100.00;99993.81;5212339;27;20083;-62
2024/04/09 08:18:38;;;;;;;9.55;1.40;;;;;;;6.85;100.00;99983.53;5216335;27;20011;-61
2024/04/09 08:21:06;;;;;;;4.78;1.00;;;;;;;6.93;100.00;99983.44;5217495;27;20341;-63
2024/04/09 08:23:34;;;;;;;8.57;1.48;;;;;;;7.03;100.00;99994.03;5224152;27;20008;-61
2024/04/09 08:26:02;;;;;;;9.85;1.98;;;;;;;7.17;100.00;100000.03;5220911;27;20534;-61
2024/04/09 08:28:29;;;;;;;6.80;1.60;;;;;;;7.30;100.00;100009.94;5226206;27;20015;-63
2024/04/09 08:31:06;;;;;;;8.93;2.95;;;;;;;7.45;100.00;100002.13;5222942;27;20031;-62
2024/04/09 08:33:34;;;;;;;5.63;1.65;;;;;;;7.61;100.00;100019.59;5215289;27;20007;-62
2024/04/09 08:36:02;;;;;;;5.60;1.50;;;;;;;7.80;100.00;100022.59;5228144;27;20374;-63
2024/04/09 08:38:30;;;;;;;6.90;1.25;;;;;;;8.04;100.00;100033.63;5212898;27;20753;-62
2024/04/09 08:40:58;;;;;;;6.53;1.17;;;;;;;8.24;100.00;100023.59;5180306;27;20019;-63
2024/04/09 08:43:27;;;;;;;3.00;1.90;;;;;;;8.49;100.00;100044.50;5210743;27;20019;-63
2024/04/09 08:45:56;;;;;;;9.10;1.70;;;;;;;8.91;100.00;100047.72;5223377;27;20358;-61
2024/04/09 08:48:24;;;;;;;6.07;1.38;;;;;;;9.55;100.00;100044.75;5216530;27;20023;-61
2024/04/09 08:50:54;;;;;;;5.25;1.70;;;;;;;10.04;100.00;100070.88;5218632;27;20008;-62
2024/04/09 08:53:24;;;;;;;6.03;1.92;;;;;;;10.15;100.00;100066.44;5220053;27;20003;-61
2024/04/09 08:55:53;;;;;;;6.22;1.10;;;;;;;10.46;100.00;100078.63;5229940;27;20017;-62
2024/04/09 08:58:20;;;;;;;8.52;2.63;;;;;;;10.56;100.00;100078.06;5210952;27;20011;-61
2024/04/09 09:00:48;;;;;;;9.05;3.00;;;;;;;10.73;100.00;100074.88;5231332;27;20018;-61
2024/04/09 09:03:16;;;;;;;11.30;1.20;;;;;;;11.31;100.00;100070.94;5218147;27;20008;-64
2024/04/09 09:05:43;;;;;;;7.85;1.13;;;;;;;12.04;100.00;100104.00;5216309;27;20015;-63
2024/04/09 09:08:11;;;;;;;6.72;1.23;;;;;;;12.02;97.96;100091.69;5207206;27;20012;-63
2024/04/09 09:10:38;;;;;;;7.93;1.30;;;;;;;11.65;94.46;100104.47;5215598;27;20023;-63
2024/04/09 09:13:05;;;;;;;2.15;1.02;;;;;;;11.59;96.57;100117.81;5203428;27;20090;-63
2024/04/09 09:15:33;;;;;;;4.80;1.25;;;;;;;11.89;95.16;100113.25;5214298;27;20006;-63
2024/04/09 09:18:02;;;;;;;15.43;1.73;;;;;;;12.67;93.60;100126.44;5215579;27;20019;-61
2024/04/09 09:20:30;;;;;;;4.68;1.10;;;;;;;12.68;91.37;100125.25;5205987;27;20814;-62
2024/04/09 09:22:59;;;;;;;3.65;0.95;;;;;;;12.69;90.44;100126.84;5222212;27;20469;-62
2024/04/09 09:25:28;;;;;;;7.78;1.17;;;;;;;12.91;89.74;100132.72;5203274;27;20011;-63
2024/04/09 09:28:07;;;;;;;7.55;1.60;;;;;;;13.26;88.86;100150.69;5216039;27;20018;-63
2024/04/09 09:30:42;;;;;;;3.63;1.02;;;;;;;13.75;86.54;100149.69;5217267;27;20105;-62
2024/04/09 09:33:26;;;;;;;14.75;2.90;;;;;;;13.50;84.84;100146.66;5209499;27;20023;-61
2024/04/09 09:35:55;;;;;;;6.03;1.10;;;;;;;13.18;84.43;100148.22;5214879;27;20007;-63
2024/04/09 09:38:24;;;;;;;7.68;1.13;;;;;;;12.96;83.01;100162.94;5220008;27;20019;-63
2024/04/09 09:40:53;;;;;;;4.63;0.93;;;;;;;12.31;81.56;100165.91;5223049;27;20504;-65
2024/04/09 09:43:23;;;;;;;11.07;3.05;;;;;;;11.99;82.00;100176.44;5210606;27;21000;-62
2024/04/09 09:45:51;;;;;;;5.85;1.05;;;;;;;11.65;81.18;100173.78;5224610;27;20498;-62
2024/04/09 09:48:21;;;;;;;8.65;1.83;;;;;;;11.24;81.08;100181.63;5213304;27;20592;-62
2024/04/09 09:50:49;;;;;;;7.78;1.70;;;;;;;10.93;81.05;100196.38;5213299;27;20087;-62
2024/04/09 09:53:20;;;;;;;7.50;1.75;;;;;;;11.06;81.91;100197.06;5208318;27;20022;-63
2024/04/09 09:55:53;;;;;;;6.70;1.52;;;;;;;11.70;80.17;100206.78;5227570;27;20011;-62
2024/04/09 09:58:24;;;;;;;5.80;2.25;;;;;;;12.27;78.61;100212.22;5205345;27;20012;-62
2024/04/09 10:00:53;;;;;;;7.95;1.40;;;;;;;12.38;76.35;100216.00;5224104;27;20021;-63
2024/04/09 10:03:21;;;;;;;4.45;1.65;;;;;;;12.43;76.88;100212.91;5222213;27;20003;-62
2024/04/09 10:05:50;;;;;;;6.80;1.25;;;;;;;13.32;75.30;100195.66;5214114;27;20083;-62
2024/04/09 10:08:22;;;;;;;6.30;1.58;;;;;;;14.02;72.22;100210.44;5206589;27;20019;-62
2024/04/09 10:10:52;;;;;;;5.03;1.20;;;;;;;14.02;71.67;100215.19;5202665;27;20031;-62
2024/04/09 10:13:23;;;;;;;5.35;1.08;;;;;;;14.09;70.52;100212.47;5224108;27;20003;-61
2024/04/09 10:15:55;;;;;;;7.60;0.88;;;;;;;13.77;70.59;100226.03;5213396;27;20018;-62
2024/04/09 10:18:34;;;;;;;4.60;0.98;;;;;;;13.39;72.33;100223.56;5220760;27;20026;-62
2024/04/09 10:21:03;;;;;;;2.80;0.88;;;;;;;13.84;71.09;100247.59;5213491;27;20853;-61
2024/04/09 10:23:39;;;;;;;4.10;1.58;;;;;;;13.28;70.35;100233.72;5207939;27;20007;-62
2024/04/09 10:26:11;;;;;;;6.70;1.60;;;;;;;12.49;71.60;100239.22;5209441;27;20019;-61
2024/04/09 10:28:38;;;;;;;6.35;1.00;;;;;;;12.34;72.57;100237.31;5211350;27;20095;-62
2024/04/09 10:31:13;;;;;;;4.05;1.38;;;;;;;13.00;71.46;100242.41;5208447;27;20024;-61
2024/04/09 10:33:41;;;;;;;4.18;1.00;;;;;;;13.93;68.41;100234.97;5223769;27;20019;-61
2024/04/09 10:36:11;;;;;;;4.50;1.02;;;;;;;14.48;66.39;100260.25;5220825;27;20468;-62
2024/04/09 10:38:44;;;;;;;9.80;1.10;;;;;;;14.42;66.19;100262.59;5217627;27;20694;-61
2024/04/09 10:41:12;;;;;;;1.97;0.63;;;;;;;14.64;66.14;100264.38;5213779;27;20022;-61
2024/04/09 10:43:41;;;;;;;5.45;1.02;;;;;;;14.92;64.83;100288.91;5202357;27;20023;-61
2024/04/09 10:46:09;;;;;;;3.75;0.70;;;;;;;14.86;63.81;100279.31;5213050;27;20035;-62
2024/04/09 10:48:43;;;;;;;3.03;0.73;;;;;;;14.84;63.97;100287.25;5223086;27;20007;-61
2024/04/09 10:51:13;;;;;;;3.67;1.17;;;;;;;14.33;64.54;100280.78;5214779;27;20661;-61
2024/04/09 10:53:43;;;;;;;3.22;0.70;;;;;;;13.71;65.45;100288.78;5211419;27;20007;-61
2024/04/09 10:56:11;;;;;;;3.30;1.00;;;;;;;13.38;66.89;100292.28;5214218;27;20031;-61
2024/04/09 10:58:39;;;;;;;3.38;0.82;;;;;;;13.20;67.55;100279.28;5229117;27;20022;-62
2024/04/09 11:01:14;;;;;;;5.07;1.00;;;;;;;13.04;67.91;100293.28;5226463;27;20051;-61
2024/04/09 11:03:42;;;;;;;7.43;1.25;;;;;;;12.93;68.25;100295.09;5237831;27;20015;-61
2024/04/09 11:06:14;;;;;;;4.80;1.00;;;;;;;12.76;68.25;100298.38;5211287;27;20056;-62
2024/04/09 11:08:42;;;;;;;5.55;0.70;;;;;;;12.65;68.49;100311.28;5226235;27;20337;-61
2024/04/09 11:11:10;;;;;;;3.28;0.63;;;;;;;12.44;68.43;100308.94;5212677;27;20477;-63
2024/04/09 11:13:38;;;;;;;3.88;0.50;;;;;;;12.37;68.93;100314.31;5214278;27;20007;-62
2024/04/09 11:16:16;;;;;;;2.97;0.52;;;;;;;12.30;68.78;100325.31;5219949;27;20008;-61
2024/04/09 11:18:57;;;;;;;4.88;0.60;;;;;;;12.20;68.72;100312.03;5219796;27;20019;-61
2024/04/09 11:21:27;;;;;;;10.48;0.90;;;;;;;12.22;68.70;100312.44;5214864;27;20014;-62
2024/04/09 11:23:56;;;;;;;2.30;1.17;;;;;;;12.25;68.85;100322.00;5232795;27;20461;-62
2024/04/09 11:26:24;;;;;;;1.58;0.40;;;;;;;12.10;68.54;100323.69;5225419;27;20011;-61
2024/04/09 11:28:52;;;;;;;4.35;1.95;;;;;;;11.95;68.39;100310.69;5204597;27;20019;-62
2024/04/09 11:31:20;;;;;;;2.60;0.60;;;;;;;11.83;68.83;100344.13;5219239;27;20011;-62
2024/04/09 11:33:51;;;;;;;3.35;0.82;;;;;;;11.71;68.69;100330.38;5215209;27;20011;-61
2024/04/09 11:36:19;;;;;;;2.10;0.50;;;;;;;11.67;68.20;100341.38;5223986;27;20047;-62